Time;durP1;ratioP1;P1;durP2;ratioP2;P2;SDS_P1;SDS_P2;PMS_P1;PMS_P2;Temp;Humidity;BMP_temperature;BMP_pressure;BME280_temperature;BME280_humidity;BME280_pressure;Samples;Min_cycle;Max_cycle;Signal;HPM_P1;HPM_P2
2024/02/09 00:00:17;;;;;;;0.73;0.73;;;;;;;11.30;78.10;98763.34;5083587;28;20441;-81
2024/02/09 00:02:44;;;;;;;1.08;1.08;;;;;;;11.31;78.01;98754.44;5091698;28;20028;-81
2024/02/09 00:05:12;;;;;;;0.10;0.10;;;;;;;11.33;78.79;98760.50;5092273;28;20040;-81
2024/02/09 00:07:38;;;;;;;0.10;0.10;;;;;;;11.39;77.80;98753.13;5092869;28;20531;-81
2024/02/09 00:10:04;;;;;;;0.90;0.73;;;;;;;11.43;77.84;98744.09;5093521;28;20118;-81
2024/02/09 00:12:34;;;;;;;0.10;0.10;;;;;;;11.45;77.34;98744.81;5090593;28;20557;-81
2024/02/09 00:15:04;;;;;;;0.10;0.10;;;;;;;11.42;77.77;98732.59;5074842;28;20029;-80
2024/02/09 00:17:32;;;;;;;0.15;0.15;;;;;;;11.46;77.72;98730.63;5069482;28;20028;-79
2024/02/09 00:19:59;;;;;;;0.13;0.13;;;;;;;11.46;77.88;98717.38;5064777;28;20029;-79
2024/02/09 00:22:26;;;;;;;0.10;0.10;;;;;;;11.45;78.00;98713.00;5061670;28;20021;-81
2024/02/09 00:24:52;;;;;;;2.63;1.27;;;;;;;11.45;77.56;98699.75;5066562;28;20048;-80
2024/02/09 00:27:19;;;;;;;0.10;0.10;;;;;;;11.38;78.32;98709.03;5075976;28;20044;-82
2024/02/09 00:29:45;;;;;;;2.83;2.05;;;;;;;11.46;77.36;98696.16;5076348;28;20032;-81
2024/02/09 00:32:14;;;;;;;0.10;0.10;;;;;;;11.45;77.60;98690.00;5069753;28;20020;-80
2024/02/09 00:34:40;;;;;;;2.08;1.98;;;;;;;11.46;77.53;98690.84;5072977;28;20555;-80
2024/02/09 00:37:06;;;;;;;0.20;0.20;;;;;;;11.47;77.31;98692.56;5061981;28;20052;-80
2024/02/09 00:39:34;;;;;;;0.10;0.10;;;;;;;11.45;77.79;98683.84;5070838;28;20037;-81
2024/02/09 00:42:02;;;;;;;1.60;0.73;;;;;;;11.47;78.13;98674.00;5065039;28;20025;-80
2024/02/09 00:44:28;;;;;;;1.33;1.23;;;;;;;11.46;77.58;98669.63;5068040;28;20029;-80
2024/02/09 00:46:55;;;;;;;0.20;0.20;;;;;;;11.44;78.42;98666.22;5072468;28;20047;-81
2024/02/09 00:49:22;;;;;;;0.10;0.10;;;;;;;11.49;78.24;98669.47;5081512;28;20028;-81
2024/02/09 00:51:52;;;;;;;0.40;0.40;;;;;;;11.49;78.37;98654.41;5075714;28;20036;-80
2024/02/09 00:54:21;;;;;;;1.65;1.55;;;;;;;11.48;77.79;98660.66;5068667;28;20036;-80
2024/02/09 00:56:48;;;;;;;0.10;0.10;;;;;;;11.48;78.12;98657.16;5075310;28;20081;-80
2024/02/09 00:59:17;;;;;;;0.25;0.25;;;;;;;11.53;77.71;98647.13;5081145;28;20029;-80
2024/02/09 01:01:43;;;;;;;0.10;0.10;;;;;;;11.54;78.22;98645.31;5064636;28;20017;-82
2024/02/09 01:04:11;;;;;;;0.10;0.10;;;;;;;11.55;78.18;98639.94;5064568;28;20055;-80
2024/02/09 01:06:38;;;;;;;0.10;0.10;;;;;;;11.53;78.39;98628.56;5057778;28;20507;-80
2024/02/09 01:09:07;;;;;;;2.40;1.05;;;;;;;11.50;78.77;98615.47;5062385;28;20036;-80
2024/02/09 01:11:35;;;;;;;0.28;0.28;;;;;;;11.47;78.97;98615.66;5054600;28;20108;-80
2024/02/09 02:45:19;;;;;;;0.10;0.10;;;;;;;11.80;79.36;98487.22;5069011;28;20093;-80
2024/02/09 03:04:18;;;;;;;0.10;0.10;;;;;;;11.80;79.48;98487.22;5074524;28;20031;-79
2024/02/09 03:04:26;;;;;;;6.35;2.60;;;;;;;11.87;78.83;98459.34;5061884;28;20043;-82
2024/02/09 03:06:52;;;;;;;0.10;0.10;;;;;;;11.85;78.81;98461.28;5071913;28;20048;-81
2024/02/09 03:09:18;;;;;;;0.15;0.15;;;;;;;11.86;78.95;98454.16;5071701;28;20055;-81
2024/02/09 03:11:45;;;;;;;0.38;0.38;;;;;;;11.87;79.37;98450.56;5068589;28;20029;-81
2024/02/09 03:14:12;;;;;;;0.40;0.40;;;;;;;11.84;79.02;98446.31;5070487;28;20032;-81
2024/02/09 03:16:38;;;;;;;0.93;0.93;;;;;;;11.87;78.83;98445.25;5074226;28;20047;-81
2024/02/09 03:19:04;;;;;;;0.57;0.57;;;;;;;11.87;78.75;98446.09;5071193;28;20492;-81
2024/02/09 03:21:35;;;;;;;0.20;0.20;;;;;;;11.86;78.88;98433.78;5073543;28;20098;-81
2024/02/09 03:24:01;;;;;;;0.10;0.10;;;;;;;11.85;79.16;98426.78;5062582;28;20033;-81
2024/02/09 03:26:28;;;;;;;0.10;0.10;;;;;;;11.86;78.71;98427.63;5066102;28;20033;-81
2024/02/09 03:28:55;;;;;;;0.10;0.10;;;;;;;11.83;79.40;98426.03;5063236;28;20033;-78
2024/02/09 03:31:23;;;;;;;0.10;0.10;;;;;;;11.86;79.03;98423.16;5065379;28;20024;-81
2024/02/09 03:33:52;;;;;;;0.20;0.20;;;;;;;11.86;79.35;98419.66;5057712;28;20043;-82
2024/02/09 03:36:20;;;;;;;0.17;0.17;;;;;;;11.86;78.91;98417.84;5062055;28;20028;-81
2024/02/09 03:38:49;;;;;;;1.10;1.00;;;;;;;11.84;79.12;98411.81;5068798;28;20029;-79
2024/02/09 03:41:15;;;;;;;0.22;0.22;;;;;;;11.91;79.03;98409.59;5070280;28;20059;-79
2024/02/09 03:43:41;;;;;;;0.63;0.63;;;;;;;11.86;79.07;98401.09;5081535;28;20037;-80
2024/02/09 03:46:09;;;;;;;0.10;0.10;;;;;;;11.85;79.16;98400.25;5069940;28;20028;-81
2024/02/09 03:48:35;;;;;;;0.68;0.68;;;;;;;11.87;78.82;98395.69;5076578;28;20047;-80
2024/02/09 03:51:02;;;;;;;1.75;1.65;;;;;;;11.85;79.46;98389.63;5072039;28;20032;-80
2024/02/09 03:53:33;;;;;;;0.10;0.10;;;;;;;11.85;79.17;98387.00;5076446;28;20051;-80
2024/02/09 03:56:00;;;;;;;0.10;0.10;;;;;;;11.86;79.11;98390.47;5077449;28;20124;-81
2024/02/09 03:58:26;;;;;;;0.10;0.10;;;;;;;11.85;79.70;98384.34;5092774;28;20092;-81
2024/02/09 04:00:52;;;;;;;0.10;0.10;;;;;;;11.93;78.96;98387.31;5081791;28;20033;-80
2024/02/09 04:03:18;;;;;;;0.20;0.20;;;;;;;11.84;79.27;98382.63;5082666;28;20423;-81
2024/02/09 04:05:45;;;;;;;0.20;0.20;;;;;;;11.86;79.61;98383.34;5084887;28;20025;-79
2024/02/09 04:08:11;;;;;;;0.10;0.10;;;;;;;11.85;79.58;98379.03;5074696;28;20036;-82
2024/02/09 04:10:40;;;;;;;0.20;0.20;;;;;;;11.88;79.04;98381.47;5084585;28;20032;-82
2024/02/09 04:13:06;;;;;;;0.25;0.25;;;;;;;11.86;79.34;98375.41;5081606;28;20025;-81
2024/02/09 04:15:32;;;;;;;0.10;0.10;;;;;;;11.92;79.27;98375.00;5085385;28;20078;-81
2024/02/09 04:18:03;;;;;;;0.10;0.10;;;;;;;11.81;79.42;98373.06;5071244;28;20032;-80
2024/02/09 04:20:29;;;;;;;0.20;0.20;;;;;;;11.88;79.58;98367.38;5081999;28;20032;-80
2024/02/09 04:22:55;;;;;;;0.35;0.35;;;;;;;11.91;79.80;98377.75;5075489;28;20079;-79
2024/02/09 04:25:22;;;;;;;1.20;1.15;;;;;;;11.81;79.46;98372.19;5069935;28;20033;-80
2024/02/09 04:27:49;;;;;;;0.20;0.20;;;;;;;11.87;78.94;98377.09;5066789;28;20020;-80
2024/02/09 04:30:17;;;;;;;3.20;1.65;;;;;;;11.91;79.27;98383.94;5067897;28;20048;-80
2024/02/09 04:32:46;;;;;;;0.10;0.10;;;;;;;11.86;79.13;98375.41;5086200;28;20036;-80
2024/02/09 04:35:14;;;;;;;0.10;0.10;;;;;;;11.90;79.66;98373.41;5070997;28;20082;-81
2024/02/09 04:37:40;;;;;;;5.93;2.72;;;;;;;11.79;80.11;98369.66;5058430;28;20507;-81
2024/02/09 04:40:07;;;;;;;0.10;0.10;;;;;;;11.87;79.71;98369.16;5065030;28;20036;-80
2024/02/09 04:42:33;;;;;;;0.22;0.22;;;;;;;11.87;79.91;98369.16;5065571;28;20029;-80
2024/02/09 04:44:59;;;;;;;0.10;0.10;;;;;;;11.96;79.37;98365.06;5078502;28;20368;-79
2024/02/09 04:47:26;;;;;;;0.10;0.10;;;;;;;11.95;79.14;98358.03;5063722;28;20131;-79
2024/02/09 04:49:52;;;;;;;0.10;0.10;;;;;;;11.93;79.58;98355.47;5068817;28;20025;-79
2024/02/09 04:52:19;;;;;;;0.10;0.10;;;;;;;11.96;79.49;98351.81;5071382;28;20037;-79
2024/02/09 04:54:45;;;;;;;0.10;0.10;;;;;;;11.95;79.01;98353.59;5065195;28;20033;-80
2024/02/09 04:57:11;;;;;;;0.22;0.22;;;;;;;12.01;78.83;98348.84;5072780;28;20484;-80
2024/02/09 04:59:37;;;;;;;0.47;0.47;;;;;;;11.95;79.14;98353.59;5063491;28;20036;-81
2024/02/09 05:02:04;;;;;;;0.10;0.10;;;;;;;11.92;79.31;98347.63;5075446;28;20024;-79
2024/02/09 05:04:30;;;;;;;0.10;0.10;;;;;;;11.92;79.19;98329.91;5082405;28;20097;-81
2024/02/09 05:06:56;;;;;;;0.20;0.20;;;;;;;11.92;78.73;98337.84;5077658;28;20032;-79
2024/02/09 05:09:29;;;;;;;3.08;1.15;;;;;;;11.88;78.84;98333.72;5085471;28;20051;-81
2024/02/09 05:11:58;;;;;;;0.20;0.20;;;;;;;11.83;79.05;98333.16;5079478;28;20032;-81
2024/02/09 05:14:24;;;;;;;0.10;0.10;;;;;;;11.84;78.85;98332.22;5079883;28;20043;-82
2024/02/09 05:16:52;;;;;;;0.20;0.20;;;;;;;11.81;78.58;98330.63;5061704;28;20036;-82
2024/02/09 05:19:18;;;;;;;0.10;0.10;;;;;;;11.86;78.56;98330.28;5067181;28;20192;-82
2024/02/09 05:21:44;;;;;;;0.10;0.10;;;;;;;11.76;78.55;98326.56;5070667;28;20031;-81
2024/02/09 05:24:12;;;;;;;0.10;0.10;;;;;;;11.78;78.25;98325.50;5073303;28;20119;-82
2024/02/09 05:26:38;;;;;;;0.10;0.10;;;;;;;11.70;79.06;98321.66;5069956;28;20098;-82
2024/02/09 05:29:04;;;;;;;0.50;0.50;;;;;;;11.78;78.40;98322.00;5069665;28;20024;-83
2024/02/09 05:31:30;;;;;;;0.52;0.52;;;;;;;11.79;79.09;98319.25;5070035;28;20084;-83
2024/02/09 05:33:57;;;;;;;1.83;1.40;;;;;;;11.78;78.56;98319.34;5073485;28;20401;-83
2024/02/09 05:36:25;;;;;;;0.20;0.20;;;;;;;11.80;79.13;98312.13;5069447;28;20037;-83
2024/02/09 05:38:53;;;;;;;0.17;0.17;;;;;;;11.77;78.92;98320.31;5073774;28;20120;-82
2024/02/09 05:41:21;;;;;;;0.20;0.20;;;;;;;11.82;78.77;98311.09;5070341;28;20021;-78
2024/02/09 05:43:49;;;;;;;9.27;1.42;;;;;;;11.72;78.83;98311.78;5060919;28;20087;-82
2024/02/09 05:46:16;;;;;;;0.10;0.10;;;;;;;11.87;78.38;98310.78;5060979;28;20037;-81
2024/02/09 05:48:43;;;;;;;0.10;0.10;;;;;;;11.78;78.72;98304.28;5056619;28;20655;-82
2024/02/09 05:51:12;;;;;;;0.20;0.20;;;;;;;11.86;78.38;98306.41;5078174;28;20028;-83
2024/02/09 05:53:40;;;;;;;0.10;0.10;;;;;;;11.86;78.53;98306.41;5075201;28;20101;-81
2024/02/09 05:56:19;;;;;;;0.28;0.28;;;;;;;11.89;78.57;98305.41;5083152;28;20032;-81
2024/02/09 05:58:46;;;;;;;0.75;0.40;;;;;;;11.82;77.77;98305.78;5062981;28;20028;-81
2024/02/09 06:01:14;;;;;;;0.10;0.10;;;;;;;11.85;77.79;98304.75;5059325;28;20068;-83
2024/02/09 06:03:41;;;;;;;0.25;0.25;;;;;;;11.86;78.37;98301.13;5063860;28;20381;-82
2024/02/09 06:06:10;;;;;;;0.10;0.10;;;;;;;11.76;78.54;98294.72;5063803;28;20507;-82
2024/02/09 06:08:37;;;;;;;0.20;0.20;;;;;;;11.84;78.47;98300.38;5061166;28;20155;-82
2024/02/09 06:11:04;;;;;;;1.13;0.77;;;;;;;11.86;78.07;98293.16;5062121;28;20036;-83
2024/02/09 06:13:30;;;;;;;1.05;1.05;;;;;;;11.88;77.98;98293.91;5066367;28;20029;-82
2024/02/09 06:15:58;;;;;;;0.10;0.10;;;;;;;11.85;78.23;98299.44;5067487;28;20058;-82
2024/02/09 06:18:26;;;;;;;0.25;0.25;;;;;;;11.89;78.18;98294.78;5067818;28;20021;-83
2024/02/09 06:20:53;;;;;;;0.20;0.20;;;;;;;11.83;78.00;98296.03;5065128;28;20040;-84
2024/02/09 06:23:23;;;;;;;0.10;0.10;;;;;;;11.81;77.74;98297.91;5061064;28;20029;-81
2024/02/09 06:25:50;;;;;;;1.05;1.05;;;;;;;11.85;78.13;98294.13;5067185;28;20123;-82
2024/02/09 06:28:19;;;;;;;0.20;0.20;;;;;;;11.72;78.37;98290.56;5062704;28;20032;-83
2024/02/09 06:30:47;;;;;;;0.10;0.10;;;;;;;11.82;78.18;98291.66;5067408;28;20521;-84
2024/02/09 06:33:15;;;;;;;0.10;0.10;;;;;;;11.87;77.62;98297.50;5062293;28;20044;-84
2024/02/09 06:35:43;;;;;;;0.20;0.20;;;;;;;11.82;77.84;98289.00;5065873;28;20029;-84
2024/02/09 06:38:11;;;;;;;0.10;0.10;;;;;;;11.87;77.83;98288.72;5061746;28;20093;-83
2024/02/09 06:40:38;;;;;;;0.10;0.10;;;;;;;11.83;77.73;98293.38;5064385;28;20111;-82
2024/02/09 06:43:05;;;;;;;0.10;0.10;;;;;;;11.81;77.67;98292.59;5062895;28;20041;-84
2024/02/09 06:45:35;;;;;;;1.00;1.00;;;;;;;11.77;78.60;98286.66;5062824;28;20036;-82
2024/02/09 06:48:02;;;;;;;0.47;0.45;;;;;;;11.79;78.58;98299.84;5063434;28;20032;-80
2024/02/09 06:50:29;;;;;;;0.10;0.10;;;;;;;11.91;78.34;98291.06;5067588;28;20044;-81
2024/02/09 06:52:56;;;;;;;0.50;0.50;;;;;;;11.80;78.39;98296.22;5069792;28;20107;-81
2024/02/09 06:55:22;;;;;;;0.10;0.10;;;;;;;11.87;77.70;98294.84;5066320;28;20028;-81
2024/02/09 06:57:50;;;;;;;0.40;0.40;;;;;;;11.92;78.29;98299.88;5061773;28;20025;-81
2024/02/09 07:00:16;;;;;;;0.10;0.10;;;;;;;11.89;78.50;98289.47;5056812;28;20024;-79
2024/02/09 07:02:45;;;;;;;0.10;0.10;;;;;;;11.90;78.64;98297.31;5063837;28;20033;-80
2024/02/09 07:05:14;;;;;;;0.10;0.10;;;;;;;11.91;78.78;98288.41;5060987;28;20056;-80
2024/02/09 07:07:43;;;;;;;0.10;0.10;;;;;;;11.93;77.84;98294.44;5066323;28;20021;-79
2024/02/09 07:10:11;;;;;;;0.10;0.10;;;;;;;11.87;78.83;98297.50;5066682;28;20084;-79
2024/02/09 07:12:37;;;;;;;0.10;0.10;;;;;;;11.95;77.90;98299.66;5062801;28;21651;-79
2024/02/09 07:15:04;;;;;;;0.43;0.43;;;;;;;11.89;78.51;98295.63;5062690;28;20059;-79
2024/02/09 07:17:30;;;;;;;0.10;0.10;;;;;;;11.93;78.03;98290.97;5065530;28;20028;-82
2024/02/09 07:19:57;;;;;;;0.10;0.10;;;;;;;11.93;78.44;98291.78;5067727;28;20063;-80
2024/02/09 07:22:23;;;;;;;0.10;0.10;;;;;;;12.00;77.80;98294.94;5068947;28;20032;-81
2024/02/09 07:24:49;;;;;;;0.10;0.10;;;;;;;11.90;78.48;98294.66;5069842;28;20025;-79
2024/02/09 07:27:16;;;;;;;0.15;0.15;;;;;;;11.99;78.28;98295.88;5068468;28;20028;-81
2024/02/09 07:29:45;;;;;;;0.10;0.10;;;;;;;11.86;78.14;98303.75;5069850;28;20035;-80
2024/02/09 07:32:12;;;;;;;0.17;0.17;;;;;;;11.96;78.85;98301.38;5067743;28;20025;-81
2024/02/09 07:34:38;;;;;;;0.30;0.30;;;;;;;11.96;78.26;98302.25;5068129;28;20052;-82
2024/02/09 07:37:04;;;;;;;0.20;0.20;;;;;;;11.92;78.41;98295.41;5070186;28;20074;-79
2024/02/09 07:39:32;;;;;;;0.40;0.40;;;;;;;11.90;78.70;98299.97;5068636;28;20025;-79
2024/02/09 07:42:01;;;;;;;1.45;0.80;;;;;;;11.95;78.51;98304.94;5074797;28;20020;-80
2024/02/09 07:44:28;;;;;;;0.10;0.10;;;;;;;11.93;78.91;98304.22;5074610;28;20021;-81
2024/02/09 07:46:55;;;;;;;0.00;0.00;;;;;;;11.98;78.29;98305.63;5066947;28;20185;-80
2024/02/09 07:49:24;;;;;;;0.20;0.20;;;;;;;12.07;78.09;98309.47;5059656;28;20465;-79
2024/02/09 07:51:50;;;;;;;0.40;0.40;;;;;;;12.08;78.15;98305.88;5065973;28;20025;-82
2024/02/09 07:54:17;;;;;;;0.10;0.10;;;;;;;12.06;78.11;98301.63;5066646;28;20048;-80
2024/02/09 07:56:43;;;;;;;0.22;0.22;;;;;;;12.07;77.73;98308.66;5066229;28;20496;-80
2024/02/09 07:59:09;;;;;;;0.80;0.80;;;;;;;12.17;77.87;98308.88;5070690;28;20491;-82
2024/02/09 08:01:36;;;;;;;0.73;0.73;;;;;;;12.16;77.79;98323.94;5078881;28;20107;-80
2024/02/09 08:04:02;;;;;;;0.10;0.10;;;;;;;12.21;77.92;98311.22;5072149;28;20478;-80
2024/02/09 08:06:28;;;;;;;0.10;0.10;;;;;;;12.17;77.90;98309.72;5065854;28;20021;-80
2024/02/09 08:08:55;;;;;;;1.55;0.65;;;;;;;12.20;78.36;98306.88;5069737;28;20025;-80
2024/02/09 08:11:22;;;;;;;0.20;0.20;;;;;;;12.20;78.22;98319.28;5057651;28;20020;-79
2024/02/09 08:13:52;;;;;;;0.10;0.10;;;;;;;12.25;78.08;98323.34;5065196;28;20084;-81
2024/02/09 08:16:21;;;;;;;0.10;0.10;;;;;;;12.26;78.13;98317.06;5067039;28;20021;-81
2024/02/09 08:18:47;;;;;;;0.30;0.30;;;;;;;12.27;78.32;98326.75;5066984;28;20036;-79
2024/02/09 08:21:14;;;;;;;0.10;0.10;;;;;;;12.34;78.41;98326.34;5061490;28;20029;-82
2024/02/09 08:23:40;;;;;;;3.33;1.75;;;;;;;12.35;78.37;98322.69;5071402;28;20492;-82
2024/02/09 08:26:07;;;;;;;0.10;0.10;;;;;;;12.41;78.33;98327.59;5071198;28;20040;-82
2024/02/09 08:28:34;;;;;;;0.10;0.10;;;;;;;12.46;77.95;98320.16;5077483;28;20081;-80
2024/02/09 08:31:05;;;;;;;0.30;0.30;;;;;;;12.34;77.88;98336.97;5070469;28;20024;-80
2024/02/09 08:33:31;;;;;;;0.15;0.15;;;;;;;12.44;78.18;98338.03;5068664;28;20021;-79
2024/02/09 08:35:57;;;;;;;0.90;0.90;;;;;;;12.42;77.39;98339.94;5071018;28;20035;-78
2024/02/09 08:38:24;;;;;;;0.95;0.95;;;;;;;12.50;77.51;98342.06;5065928;28;20021;-79
2024/02/09 08:40:50;;;;;;;0.60;0.60;;;;;;;12.50;77.93;98337.59;5069546;28;20488;-79
2024/02/09 08:43:16;;;;;;;0.10;0.10;;;;;;;12.49;77.56;98335.91;5069813;28;20102;-82
2024/02/09 08:45:42;;;;;;;0.10;0.10;;;;;;;12.40;77.51;98331.19;5069593;28;20036;-80
2024/02/09 08:48:08;;;;;;;0.10;0.10;;;;;;;12.42;77.43;98345.22;5065458;28;20033;-79
2024/02/09 08:50:35;;;;;;;0.80;0.80;;;;;;;12.46;77.50;98349.38;5067120;28;20135;-80
2024/02/09 08:53:02;;;;;;;0.10;0.10;;;;;;;12.55;77.68;98355.91;5072897;28;20024;-80
2024/02/09 08:55:28;;;;;;;0.10;0.10;;;;;;;12.50;77.67;98348.22;5073809;28;20033;-80
2024/02/09 08:57:55;;;;;;;0.73;0.73;;;;;;;12.61;77.42;98350.13;5077657;28;20028;-80
2024/02/09 09:00:21;;;;;;;0.63;0.63;;;;;;;12.58;77.56;98356.50;5072736;28;20032;-81
2024/02/09 09:02:47;;;;;;;0.10;0.10;;;;;;;12.61;77.66;98351.00;5072178;28;20026;-82
2024/02/09 09:05:13;;;;;;;0.10;0.10;;;;;;;12.58;77.46;98353.84;5067927;28;20357;-83
2024/02/09 09:07:39;;;;;;;0.10;0.10;;;;;;;12.62;77.55;98358.03;5066686;28;20107;-80
2024/02/09 09:10:06;;;;;;;0.28;0.28;;;;;;;12.74;77.23;98360.78;5066343;28;20033;-80
2024/02/09 09:12:32;;;;;;;0.10;0.10;;;;;;;12.76;77.10;98356.19;5066701;28;20385;-79
2024/02/09 09:15:04;;;;;;;0.65;0.65;;;;;;;12.76;76.98;98364.16;5063797;28;20028;-80
2024/02/09 09:17:31;;;;;;;0.20;0.20;;;;;;;12.79;77.10;98367.47;5065185;28;20052;-79
2024/02/09 09:19:58;;;;;;;0.10;0.10;;;;;;;12.86;77.21;98370.56;5066711;28;20044;-79
2024/02/09 09:22:24;;;;;;;0.20;0.20;;;;;;;12.66;76.88;98376.41;5064988;28;20107;-80
2024/02/09 09:24:50;;;;;;;0.20;0.20;;;;;;;12.79;77.24;98387.88;5066737;28;20033;-80
2024/02/09 09:27:18;;;;;;;0.57;0.57;;;;;;;12.79;77.68;98369.28;5067585;28;20037;-80
2024/02/09 09:29:44;;;;;;;0.10;0.10;;;;;;;12.92;77.42;98370.16;5066955;28;20025;-81
2024/02/09 09:32:11;;;;;;;0.10;0.10;;;;;;;12.88;77.39;98367.81;5067664;28;20055;-82
2024/02/09 09:34:41;;;;;;;0.68;0.68;;;;;;;12.89;77.69;98374.81;5063825;28;20025;-82
2024/02/09 09:37:10;;;;;;;5.05;2.05;;;;;;;12.86;77.70;98375.88;5066181;28;20036;-83
2024/02/09 09:39:36;;;;;;;0.10;0.10;;;;;;;12.95;77.30;98375.25;5067739;28;20024;-82
2024/02/09 09:42:03;;;;;;;0.10;0.10;;;;;;;13.00;77.43;98368.78;5073308;28;20039;-83
2024/02/09 09:44:29;;;;;;;10.95;5.15;;;;;;;13.09;77.28;98376.09;5070630;28;20506;-84
2024/02/09 09:46:58;;;;;;;0.10;0.10;;;;;;;13.08;77.53;98379.69;5070323;28;20041;-84
2024/02/09 09:49:26;;;;;;;0.08;0.08;;;;;;;13.19;77.09;98373.63;5067245;28;20020;-84
2024/02/09 09:51:57;;;;;;;1.63;1.17;;;;;;;13.12;76.80;98375.84;5079682;28;20108;-82
2024/02/09 09:54:27;;;;;;;0.10;0.10;;;;;;;13.27;76.88;98371.28;5073139;28;20017;-84
2024/02/09 09:56:55;;;;;;;0.10;0.10;;;;;;;13.32;76.80;98376.28;5080449;28;20020;-83
2024/02/09 09:59:24;;;;;;;0.03;0.03;;;;;;;13.34;76.10;98374.38;5073986;28;20031;-81
2024/02/09 10:01:50;;;;;;;0.47;0.35;;;;;;;13.41;76.07;98386.31;5078040;28;20032;-81
2024/02/09 10:04:17;;;;;;;0.65;0.65;;;;;;;13.38;75.39;98391.81;5070935;28;20556;-81
2024/02/09 10:06:43;;;;;;;0.10;0.10;;;;;;;13.49;74.59;98381.28;5076940;28;20021;-81
2024/02/09 10:09:09;;;;;;;0.10;0.10;;;;;;;13.53;74.75;98382.78;5071910;28;20039;-81
2024/02/09 10:11:37;;;;;;;0.10;0.10;;;;;;;13.70;74.55;98376.22;5075011;28;20017;-80
2024/02/09 10:14:14;;;;;;;1.20;1.15;;;;;;;13.87;74.37;98376.81;5077123;28;20032;-82
2024/02/09 10:16:41;;;;;;;0.10;0.10;;;;;;;13.96;73.32;98380.63;5074636;28;20017;-81
2024/02/09 10:19:09;;;;;;;2.40;2.30;;;;;;;13.83;72.54;98370.00;5069179;28;20036;-81
2024/02/09 10:21:35;;;;;;;0.10;0.10;;;;;;;14.01;72.70;98371.31;5063757;28;20171;-80
2024/02/09 10:24:02;;;;;;;0.10;0.10;;;;;;;14.05;72.17;98385.25;5061771;28;20058;-81
2024/02/09 10:26:29;;;;;;;0.10;0.10;;;;;;;13.98;72.07;98390.19;5061331;28;20033;-80
2024/02/09 10:28:55;;;;;;;0.45;0.45;;;;;;;14.02;71.91;98390.81;5067384;28;20056;-81
2024/02/09 10:31:22;;;;;;;0.20;0.20;;;;;;;14.14;71.56;98399.69;5051630;28;20025;-81
2024/02/09 10:33:49;;;;;;;0.10;0.10;;;;;;;14.18;71.53;98393.16;5073183;28;20021;-83
2024/02/09 10:36:16;;;;;;;0.10;0.10;;;;;;;14.24;71.83;98390.03;5074885;28;20103;-81
2024/02/09 10:38:43;;;;;;;0.10;0.10;;;;;;;14.34;72.37;98387.56;5069344;28;20088;-80
2024/02/09 10:41:12;;;;;;;0.20;0.20;;;;;;;14.24;71.39;98400.69;5046178;28;20389;-80
2024/02/09 10:43:41;;;;;;;0.10;0.10;;;;;;;14.23;71.35;98389.22;5064133;28;20055;-82
2024/02/09 10:46:08;;;;;;;0.17;0.17;;;;;;;14.21;71.22;98399.13;5066094;28;20054;-80
2024/02/09 10:48:38;;;;;;;0.10;0.10;;;;;;;14.32;71.17;98403.66;5066139;28;20467;-81
2024/02/09 10:51:07;;;;;;;1.00;1.00;;;;;;;14.26;71.36;98404.09;5064810;28;20024;-80
2024/02/09 10:53:41;;;;;;;0.10;0.10;;;;;;;14.21;71.59;98407.09;5065673;28;20025;-81
2024/02/09 10:56:12;;;;;;;0.10;0.10;;;;;;;14.07;71.59;98401.97;5062161;28;20033;-80
2024/02/09 10:58:41;;;;;;;0.10;0.10;;;;;;;14.14;71.66;98411.19;5064333;28;20025;-80
2024/02/09 11:01:07;;;;;;;0.10;0.10;;;;;;;14.15;71.57;98412.88;5059547;28;20020;-81
2024/02/09 11:03:34;;;;;;;1.30;1.30;;;;;;;13.96;71.95;98413.41;5067972;28;20053;-82
2024/02/09 11:06:02;;;;;;;1.77;0.88;;;;;;;14.00;71.88;98409.53;5071667;28;20048;-82
2024/02/09 11:08:33;;;;;;;0.20;0.20;;;;;;;14.02;71.92;98412.09;5074247;28;20029;-81
2024/02/09 11:11:02;;;;;;;0.10;0.10;;;;;;;14.00;71.98;98420.19;5077130;28;20047;-79
2024/02/09 11:13:28;;;;;;;0.10;0.10;;;;;;;13.97;72.12;98416.91;5073463;28;20032;-81
2024/02/09 11:15:57;;;;;;;0.10;0.10;;;;;;;13.84;72.56;98430.25;5076622;28;20029;-82
2024/02/09 11:18:32;;;;;;;0.40;0.40;;;;;;;13.72;73.50;98424.00;5058421;28;20022;-81
2024/02/09 11:21:09;;;;;;;0.68;0.68;;;;;;;13.62;74.25;98436.25;5072714;28;20021;-81
2024/02/09 11:23:40;;;;;;;0.10;0.10;;;;;;;13.62;74.74;98425.63;5072474;28;20032;-79
2024/02/09 11:26:11;;;;;;;0.22;0.22;;;;;;;13.63;74.65;98432.66;5075063;28;20025;-81
2024/02/09 11:28:37;;;;;;;2.65;0.95;;;;;;;13.52;74.98;98442.25;5070223;28;20025;-80
2024/02/09 11:31:07;;;;;;;0.00;0.00;;;;;;;13.49;75.19;98431.81;5065542;28;20108;-81
2024/02/09 11:33:34;;;;;;;0.20;0.20;;;;;;;13.61;75.03;98439.88;5059644;28;20048;-79
2024/02/09 11:36:02;;;;;;;1.98;0.98;;;;;;;13.60;75.28;98433.72;5058398;28;20100;-80
2024/02/09 11:38:28;;;;;;;2.53;1.23;;;;;;;13.62;75.08;98436.25;5066745;28;20021;-80
2024/02/09 11:40:57;;;;;;;0.10;0.10;;;;;;;13.60;74.96;98436.38;5067614;28;20480;-80
2024/02/09 11:43:24;;;;;;;0.10;0.10;;;;;;;13.61;74.97;98439.88;5066699;28;20104;-79
2024/02/09 11:45:53;;;;;;;1.35;0.43;;;;;;;13.61;74.39;98440.75;5070064;28;20025;-80
2024/02/09 11:48:39;;;;;;;0.10;0.10;;;;;;;13.63;74.35;98432.66;5054721;28;20035;-80
2024/02/09 11:51:06;;;;;;;0.10;0.10;;;;;;;13.75;73.73;98437.09;5056492;28;20036;-81
2024/02/09 11:53:34;;;;;;;0.20;0.20;;;;;;;13.80;73.76;98434.94;5052664;28;20047;-80
2024/02/09 11:56:00;;;;;;;0.10;0.10;;;;;;;13.76;73.23;98444.13;5047726;28;20036;-78
2024/02/09 11:58:28;;;;;;;0.38;0.38;;;;;;;13.79;73.17;98435.06;5047528;28;20029;-80
2024/02/09 12:00:57;;;;;;;0.10;0.10;;;;;;;13.80;72.85;98437.59;5040707;28;20849;-80
2024/02/09 12:03:24;;;;;;;0.10;0.10;;;;;;;13.83;72.79;98448.06;5070457;28;20048;-82
2024/02/09 12:05:50;;;;;;;0.63;0.55;;;;;;;13.82;72.52;98437.50;5071715;28;20033;-82
2024/02/09 12:08:18;;;;;;;0.10;0.10;;;;;;;13.84;72.60;98435.56;5039432;28;20056;-80
2024/02/09 12:10:45;;;;;;;0.10;0.10;;;;;;;13.87;72.17;98441.53;5029783;28;20049;-80
2024/02/09 12:13:12;;;;;;;0.10;0.10;;;;;;;13.81;71.93;98435.81;5027612;28;20030;-79
2024/02/09 12:15:38;;;;;;;0.10;0.10;;;;;;;13.88;71.96;98437.91;5034616;28;20048;-80
2024/02/09 12:18:08;;;;;;;0.10;0.10;;;;;;;13.89;71.62;98444.94;5040469;28;20037;-81
2024/02/09 12:20:35;;;;;;;0.10;0.10;;;;;;;13.88;71.95;98437.91;5068375;28;20085;-80
2024/02/09 12:23:03;;;;;;;0.10;0.10;;;;;;;13.98;71.61;98437.22;5063747;28;20091;-78
2024/02/09 12:25:37;;;;;;;0.13;0.13;;;;;;;14.05;71.64;98433.16;5066129;28;20028;-79
2024/02/09 12:28:03;;;;;;;0.10;0.10;;;;;;;14.04;71.71;98431.47;5063797;28;20388;-80
2024/02/09 12:30:29;;;;;;;0.10;0.10;;;;;;;14.10;71.32;98431.03;5071111;28;20362;-80
2024/02/09 12:32:58;;;;;;;2.60;1.75;;;;;;;14.09;70.60;98439.97;5073308;28;20033;-81
2024/02/09 12:35:28;;;;;;;0.00;0.00;;;;;;;14.20;70.63;98433.84;5071378;28;20028;-80
2024/02/09 12:37:57;;;;;;;0.10;0.10;;;;;;;14.26;69.96;98429.91;5074924;28;20048;-82
2024/02/09 12:40:24;;;;;;;0.00;0.00;;;;;;;14.46;70.53;98426.59;5071519;28;20028;-79
2024/02/09 12:42:53;;;;;;;0.10;0.10;;;;;;;14.47;69.63;98432.78;5067257;28;20017;-81
2024/02/09 12:45:25;;;;;;;0.57;0.57;;;;;;;14.52;69.53;98438.63;5066221;28;20089;-80
2024/02/09 12:47:52;;;;;;;0.10;0.10;;;;;;;14.47;68.77;98432.78;5066000;28;20025;-80
2024/02/09 12:50:20;;;;;;;1.23;1.20;;;;;;;14.60;68.65;98427.38;5072817;28;20028;-81
2024/02/09 12:52:49;;;;;;;0.30;0.30;;;;;;;14.72;68.94;98423.81;5074304;28;20017;-81
2024/02/09 12:55:19;;;;;;;0.05;0.05;;;;;;;14.80;68.87;98433.88;5073551;28;20059;-81
2024/02/09 12:57:46;;;;;;;1.10;0.98;;;;;;;14.79;67.90;98438.38;5076173;28;20032;-79
2024/02/09 13:00:13;;;;;;;0.10;0.10;;;;;;;14.80;67.58;98431.22;5075546;28;20021;-81
2024/02/09 13:02:40;;;;;;;0.10;0.10;;;;;;;14.81;67.91;98423.09;5066887;28;20496;-78
2024/02/09 13:05:07;;;;;;;0.10;0.10;;;;;;;14.72;67.46;98431.81;5067286;28;20047;-78
2024/02/09 13:07:34;;;;;;;3.03;1.55;;;;;;;14.70;67.53;98433.72;5067489;28;20048;-80
2024/02/09 13:10:01;;;;;;;0.10;0.10;;;;;;;14.65;66.78;98431.41;5062217;28;20036;-79
2024/02/09 13:12:27;;;;;;;0.10;0.10;;;;;;;14.58;66.53;98435.50;5059458;28;20033;-80
2024/02/09 13:14:53;;;;;;;0.77;0.77;;;;;;;14.72;66.89;98437.97;5058646;28;20048;-80
2024/02/09 13:17:20;;;;;;;0.17;0.17;;;;;;;14.66;66.45;98437.59;5058443;28;20033;-80
2024/02/09 13:19:46;;;;;;;0.10;0.10;;;;;;;14.54;64.96;98444.66;5063790;28;20124;-81